sensor_id;sensor_type;location;lat;lon;timestamp;pressure;altitude;pressure_sealevel;temperature;humidity
69689;BME280;56932;38.402;-96.176;2023-02-24T00:01:54;98763.42;;;21.13;14.69
69689;BME280;56932;38.402;-96.176;2023-02-24T00:04:19;98759.41;;;21.57;14.60
69689;BME280;56932;38.402;-96.176;2023-02-24T00:06:44;98763.60;;;21.24;14.57
69689;BME280;56932;38.402;-96.176;2023-02-24T00:09:11;98771.25;;;21.31;14.66
69689;BME280;56932;38.402;-96.176;2023-02-24T00:11:35;98779.79;;;21.13;14.69
69689;BME280;56932;38.402;-96.176;2023-02-24T00:14:00;98777.91;;;21.74;14.34
69689;BME280;56932;38.402;-96.176;2023-02-24T00:16:26;98772.57;;;20.91;14.78
69689;BME280;56932;38.402;-96.176;2023-02-24T00:18:52;98774.59;;;21.29;14.80
69689;BME280;56932;38.402;-96.176;2023-02-24T00:21:17;98775.10;;;21.47;15.09
69689;BME280;56932;38.402;-96.176;2023-02-24T00:23:45;98777.29;;;21.32;15.44
69689;BME280;56932;38.402;-96.176;2023-02-24T00:26:10;98785.66;;;21.46;15.61
69689;BME280;56932;38.402;-96.176;2023-02-24T00:28:35;98787.29;;;21.77;16.12
69689;BME280;56932;38.402;-96.176;2023-02-24T00:31:03;98792.95;;;20.99;16.71
69689;BME280;56932;38.402;-96.176;2023-02-24T00:33:25;98816.77;;;21.37;16.78
69689;BME280;56932;38.402;-96.176;2023-02-24T00:35:50;98829.65;;;21.07;17.15
69689;BME280;56932;38.402;-96.176;2023-02-24T00:38:16;98835.12;;;21.35;17.19
69689;BME280;56932;38.402;-96.176;2023-02-24T00:40:41;98843.06;;;21.72;16.97
69689;BME280;56932;38.402;-96.176;2023-02-24T00:43:06;98848.25;;;21.23;17.13
69689;BME280;56932;38.402;-96.176;2023-02-24T00:45:34;98848.45;;;21.63;17.32
69689;BME280;56932;38.402;-96.176;2023-02-24T00:47:57;98855.21;;;21.17;17.09
69689;BME280;56932;38.402;-96.176;2023-02-24T00:50:23;98863.01;;;21.53;16.92
69689;BME280;56932;38.402;-96.176;2023-02-24T00:52:48;98875.03;;;20.73;17.05
69689;BME280;56932;38.402;-96.176;2023-02-24T00:55:14;98883.32;;;21.33;16.80
69689;BME280;56932;38.402;-96.176;2023-02-24T00:57:40;98888.33;;;21.32;16.93
69689;BME280;56932;38.402;-96.176;2023-02-24T01:00:06;98894.01;;;20.84;17.05
69689;BME280;56932;38.402;-96.176;2023-02-24T01:02:30;98907.65;;;21.50;16.79
69689;BME280;56932;38.402;-96.176;2023-02-24T01:04:55;98911.98;;;21.35;16.63
69689;BME280;56932;38.402;-96.176;2023-02-24T01:07:21;98913.26;;;21.18;16.64
69689;BME280;56932;38.402;-96.176;2023-02-24T01:09:49;98922.83;;;20.87;16.72
69689;BME280;56932;38.402;-96.176;2023-02-24T01:12:13;98930.00;;;21.12;17.16
69689;BME280;56932;38.402;-96.176;2023-02-24T01:14:38;98927.95;;;20.38;17.41
69689;BME280;56932;38.402;-96.176;2023-02-24T01:17:04;98933.03;;;20.46;17.59
69689;BME280;56932;38.402;-96.176;2023-02-24T01:19:30;98943.17;;;19.87;17.92
69689;BME280;56932;38.402;-96.176;2023-02-24T01:21:54;98952.49;;;19.65;17.97
69689;BME280;56932;38.402;-96.176;2023-02-24T01:24:20;98955.91;;;20.30;17.77
69689;BME280;56932;38.402;-96.176;2023-02-24T01:26:46;98955.09;;;19.49;18.17
69689;BME280;56932;38.402;-96.176;2023-02-24T01:29:11;98964.28;;;19.64;18.23
69689;BME280;56932;38.402;-96.176;2023-02-24T01:31:36;98964.74;;;20.05;18.10
69689;BME280;56932;38.402;-96.176;2023-02-24T01:34:01;98971.02;;;20.06;17.92
69689;BME280;56932;38.402;-96.176;2023-02-24T01:36:27;98979.77;;;20.32;17.69
69689;BME280;56932;38.402;-96.176;2023-02-24T01:38:52;98984.99;;;20.42;17.49
69689;BME280;56932;38.402;-96.176;2023-02-24T01:41:22;98983.69;;;20.88;17.57
69689;BME280;56932;38.402;-96.176;2023-02-24T01:43:54;98988.07;;;20.49;17.34
69689;BME280;56932;38.402;-96.176;2023-02-24T01:46:09;98988.81;;;21.11;17.05
69689;BME280;56932;38.402;-96.176;2023-02-24T01:48:35;98994.07;;;20.58;17.50
69689;BME280;56932;38.402;-96.176;2023-02-24T01:51:00;98998.99;;;20.26;17.42
69689;BME280;56932;38.402;-96.176;2023-02-24T01:53:26;98999.37;;;20.96;17.17
69689;BME280;56932;38.402;-96.176;2023-02-24T01:55:51;98999.81;;;20.24;17.16
69689;BME280;56932;38.402;-96.176;2023-02-24T01:58:23;99006.43;;;20.72;16.94
69689;BME280;56932;38.402;-96.176;2023-02-24T02:00:43;99009.36;;;20.03;17.15
69689;BME280;56932;38.402;-96.176;2023-02-24T02:03:14;99014.12;;;20.57;16.83
69689;BME280;56932;38.402;-96.176;2023-02-24T02:05:34;99011.77;;;21.27;16.37
69689;BME280;56932;38.402;-96.176;2023-02-24T02:08:00;99006.70;;;20.30;16.54
69689;BME280;56932;38.402;-96.176;2023-02-24T02:10:25;99004.47;;;21.38;16.14
69689;BME280;56932;38.402;-96.176;2023-02-24T02:12:50;99003.65;;;21.22;15.85
69689;BME280;56932;38.402;-96.176;2023-02-24T02:15:17;98999.37;;;21.02;16.27
69689;BME280;56932;38.402;-96.176;2023-02-24T02:17:50;99000.56;;;21.38;15.99
69689;BME280;56932;38.402;-96.176;2023-02-24T02:20:17;99003.10;;;22.08;15.52
69689;BME280;56932;38.402;-96.176;2023-02-24T02:25:02;99006.85;;;21.36;15.74
69689;BME280;56932;38.402;-96.176;2023-02-24T02:27:33;99010.55;;;21.07;15.96
69689;BME280;56932;38.402;-96.176;2023-02-24T02:29:57;99014.26;;;21.45;15.27
69689;BME280;56932;38.402;-96.176;2023-02-24T02:34:47;99031.45;;;23.06;14.62
69689;BME280;56932;38.402;-96.176;2023-02-24T02:37:09;99034.69;;;21.82;15.14
69689;BME280;56932;38.402;-96.176;2023-02-24T02:39:40;99033.75;;;22.33;15.01
69689;BME280;56932;38.402;-96.176;2023-02-24T02:42:03;99043.39;;;22.82;14.62
69689;BME280;56932;38.402;-96.176;2023-02-24T02:44:26;99039.63;;;22.60;14.75
69689;BME280;56932;38.402;-96.176;2023-02-24T02:46:52;99039.77;;;22.40;14.50
69689;BME280;56932;38.402;-96.176;2023-02-24T02:49:16;99045.74;;;22.62;14.61
69689;BME280;56932;38.402;-96.176;2023-02-24T02:51:43;99045.92;;;22.65;14.59
69689;BME280;56932;38.402;-96.176;2023-02-24T02:54:09;99046.37;;;22.31;14.60
69689;BME280;56932;38.402;-96.176;2023-02-24T02:56:34;99053.71;;;22.88;14.31
69689;BME280;56932;38.402;-96.176;2023-02-24T02:58:56;99049.51;;;22.27;14.50
69689;BME280;56932;38.402;-96.176;2023-02-24T03:01:24;99068.26;;;22.84;14.27
69689;BME280;56932;38.402;-96.176;2023-02-24T03:03:50;99080.09;;;22.23;14.32
69689;BME280;56932;38.402;-96.176;2023-02-24T03:06:15;99083.15;;;22.57;14.19
69689;BME280;56932;38.402;-96.176;2023-02-24T03:08:39;99092.90;;;22.24;14.33
69689;BME280;56932;38.402;-96.176;2023-02-24T03:11:08;99092.74;;;22.52;14.14
69689;BME280;56932;38.402;-96.176;2023-02-24T03:13:33;99092.38;;;22.44;14.34
69689;BME280;56932;38.402;-96.176;2023-02-24T03:15:56;99088.88;;;22.10;14.17
69689;BME280;56932;38.402;-96.176;2023-02-24T03:18:25;99090.38;;;22.79;14.12
69689;BME280;56932;38.402;-96.176;2023-02-24T03:20:49;99090.04;;;22.08;14.22
69689;BME280;56932;38.402;-96.176;2023-02-24T03:23:13;99084.85;;;22.65;14.17
69689;BME280;56932;38.402;-96.176;2023-02-24T03:25:41;99086.93;;;22.68;14.12
69689;BME280;56932;38.402;-96.176;2023-02-24T03:28:07;99091.11;;;22.45;14.21
69689;BME280;56932;38.402;-96.176;2023-02-24T03:30:33;99094.80;;;22.41;14.47
69689;BME280;56932;38.402;-96.176;2023-02-24T03:32:57;99096.51;;;22.16;14.27
69689;BME280;56932;38.402;-96.176;2023-02-24T03:35:21;99093.03;;;22.33;14.36
69689;BME280;56932;38.402;-96.176;2023-02-24T03:37:44;99091.92;;;21.02;14.63
69689;BME280;56932;38.402;-96.176;2023-02-24T03:40:11;99089.13;;;21.79;14.41
69689;BME280;56932;38.402;-96.176;2023-02-24T03:42:35;99091.99;;;21.81;14.49
69689;BME280;56932;38.402;-96.176;2023-02-24T03:45:01;99088.87;;;21.56;14.48
69689;BME280;56932;38.402;-96.176;2023-02-24T03:47:26;99099.41;;;21.40;14.49
69689;BME280;56932;38.402;-96.176;2023-02-24T03:49:52;99106.05;;;21.05;14.47
69689;BME280;56932;38.402;-96.176;2023-02-24T03:52:25;99102.69;;;21.57;14.43
69689;BME280;56932;38.402;-96.176;2023-02-24T03:55:01;99111.93;;;21.02;14.38
69689;BME280;56932;38.402;-96.176;2023-02-24T03:57:16;99124.12;;;20.86;14.43
69689;BME280;56932;38.402;-96.176;2023-02-24T03:59:42;99127.67;;;21.19;14.33
69689;BME280;56932;38.402;-96.176;2023-02-24T04:02:04;99129.61;;;21.18;14.43
69689;BME280;56932;38.402;-96.176;2023-02-24T04:04:31;99126.61;;;21.33;14.30
69689;BME280;56932;38.402;-96.176;2023-02-24T04:06:53;99128.61;;;19.63;14.90
69689;BME280;56932;38.402;-96.176;2023-02-24T04:09:20;99137.02;;;20.67;14.57
69689;BME280;56932;38.402;-96.176;2023-02-24T04:11:46;99148.59;;;20.77;14.46
69689;BME280;56932;38.402;-96.176;2023-02-24T04:14:10;99145.62;;;20.41;14.44
69689;BME280;56932;38.402;-96.176;2023-02-24T04:16:37;99148.15;;;20.63;14.47
69689;BME280;56932;38.402;-96.176;2023-02-24T04:19:02;99143.80;;;20.75;14.34
69689;BME280;56932;38.402;-96.176;2023-02-24T04:21:26;99150.44;;;19.33;15.07
69689;BME280;56932;38.402;-96.176;2023-02-24T04:23:49;99141.35;;;19.71;14.73
69689;BME280;56932;38.402;-96.176;2023-02-24T04:26:15;99150.33;;;20.84;14.44
69689;BME280;56932;38.402;-96.176;2023-02-24T04:28:41;99151.19;;;20.40;14.58
69689;BME280;56932;38.402;-96.176;2023-02-24T04:31:10;99158.16;;;20.33;14.54
69689;BME280;56932;38.402;-96.176;2023-02-24T04:33:31;99167.72;;;20.31;14.58
69689;BME280;56932;38.402;-96.176;2023-02-24T04:35:57;99172.87;;;19.83;14.59
69689;BME280;56932;38.402;-96.176;2023-02-24T04:38:22;99173.26;;;20.67;14.31
69689;BME280;56932;38.402;-96.176;2023-02-24T04:40:48;99180.68;;;19.22;14.60
69689;BME280;56932;38.402;-96.176;2023-02-24T04:43:13;99186.83;;;19.87;14.47
69689;BME280;56932;38.402;-96.176;2023-02-24T04:45:39;99188.12;;;20.44;14.37
69689;BME280;56932;38.402;-96.176;2023-02-24T04:48:05;99189.67;;;19.73;14.48
69689;BME280;56932;38.402;-96.176;2023-02-24T04:50:33;99192.84;;;20.19;14.44
69689;BME280;56932;38.402;-96.176;2023-02-24T04:52:58;99197.67;;;19.45;14.59
69689;BME280;56932;38.402;-96.176;2023-02-24T04:55:24;99191.54;;;19.93;14.53
69689;BME280;56932;38.402;-96.176;2023-02-24T04:57:48;99203.18;;;19.36;14.43
69689;BME280;56932;38.402;-96.176;2023-02-24T05:00:14;99204.23;;;19.69;14.50
69689;BME280;56932;38.402;-96.176;2023-02-24T05:02:38;99200.78;;;19.82;14.55
69689;BME280;56932;38.402;-96.176;2023-02-24T05:05:04;99207.21;;;19.63;14.51
69689;BME280;56932;38.402;-96.176;2023-02-24T05:07:30;99207.26;;;20.11;14.37
69689;BME280;56932;38.402;-96.176;2023-02-24T05:09:55;99197.65;;;18.73;15.16
69689;BME280;56932;38.402;-96.176;2023-02-24T05:12:21;99197.10;;;19.27;14.98
69689;BME280;56932;38.402;-96.176;2023-02-24T05:14:46;99205.04;;;17.70;15.65
69689;BME280;56932;38.402;-96.176;2023-02-24T05:17:12;99207.22;;;18.58;15.46
69689;BME280;56932;38.402;-96.176;2023-02-24T05:19:37;99211.40;;;18.26;15.87
69689;BME280;56932;38.402;-96.176;2023-02-24T05:22:03;99215.40;;;18.16;15.87
69689;BME280;56932;38.402;-96.176;2023-02-24T05:24:30;99208.98;;;17.70;16.47
69689;BME280;56932;38.402;-96.176;2023-02-24T05:26:55;99208.49;;;17.48;16.54
69689;BME280;56932;38.402;-96.176;2023-02-24T05:29:19;99212.23;;;17.75;16.40
69689;BME280;56932;38.402;-96.176;2023-02-24T05:31:45;99218.21;;;17.49;16.42
69689;BME280;56932;38.402;-96.176;2023-02-24T05:34:11;99229.08;;;17.95;16.19
69689;BME280;56932;38.402;-96.176;2023-02-24T05:36:38;99229.05;;;18.14;16.25
69689;BME280;56932;38.402;-96.176;2023-02-24T05:39:03;99228.56;;;18.20;16.06
69689;BME280;56932;38.402;-96.176;2023-02-24T05:41:27;99231.23;;;18.52;16.06
69689;BME280;56932;38.402;-96.176;2023-02-24T05:43:54;99232.11;;;18.30;16.12
69689;BME280;56932;38.402;-96.176;2023-02-24T05:46:19;99237.16;;;18.61;15.99
69689;BME280;56932;38.402;-96.176;2023-02-24T05:48:48;99234.37;;;18.34;16.05
69689;BME280;56932;38.402;-96.176;2023-02-24T05:51:09;99240.24;;;18.63;15.89
69689;BME280;56932;38.402;-96.176;2023-02-24T05:53:35;99234.10;;;18.78;15.97
69689;BME280;56932;38.402;-96.176;2023-02-24T05:56:01;99233.20;;;18.41;15.93
69689;BME280;56932;38.402;-96.176;2023-02-24T05:58:26;99228.50;;;19.06;15.81
69689;BME280;56932;38.402;-96.176;2023-02-24T06:00:52;99233.14;;;18.41;15.65
69689;BME280;56932;38.402;-96.176;2023-02-24T06:03:17;99246.92;;;18.74;15.80
69689;BME280;56932;38.402;-96.176;2023-02-24T06:05:51;99258.69;;;17.68;15.77
69689;BME280;56932;38.402;-96.176;2023-02-24T06:08:08;99266.24;;;19.30;15.53
69689;BME280;56932;38.402;-96.176;2023-02-24T06:10:34;99264.11;;;18.82;15.84
69689;BME280;56932;38.402;-96.176;2023-02-24T06:13:00;99255.94;;;18.84;15.99
69689;BME280;56932;38.402;-96.176;2023-02-24T06:15:25;99251.97;;;18.73;16.08
69689;BME280;56932;38.402;-96.176;2023-02-24T06:17:50;99247.38;;;18.09;16.05
69689;BME280;56932;38.402;-96.176;2023-02-24T06:20:16;99254.89;;;18.92;16.15
69689;BME280;56932;38.402;-96.176;2023-02-24T06:22:41;99256.33;;;18.45;16.12
69689;BME280;56932;38.402;-96.176;2023-02-24T06:25:08;99255.30;;;18.74;16.18
69689;BME280;56932;38.402;-96.176;2023-02-24T06:27:32;99250.59;;;18.77;16.16
69689;BME280;56932;38.402;-96.176;2023-02-24T06:29:57;99243.63;;;18.62;16.14
69689;BME280;56932;38.402;-96.176;2023-02-24T06:32:24;99241.00;;;18.92;15.95
69689;BME280;56932;38.402;-96.176;2023-02-24T06:34:50;99251.35;;;18.10;16.17
69689;BME280;56932;38.402;-96.176;2023-02-24T06:37:15;99261.05;;;18.82;15.90
69689;BME280;56932;38.402;-96.176;2023-02-24T06:39:40;99258.43;;;19.64;15.67
69689;BME280;56932;38.402;-96.176;2023-02-24T06:42:06;99238.58;;;19.41;15.52
69689;BME280;56932;38.402;-96.176;2023-02-24T06:44:31;99242.60;;;19.46;15.48
69689;BME280;56932;38.402;-96.176;2023-02-24T06:46:57;99237.02;;;19.26;15.57
69689;BME280;56932;38.402;-96.176;2023-02-24T06:49:22;99235.10;;;19.22;15.57
69689;BME280;56932;38.402;-96.176;2023-02-24T06:51:47;99238.08;;;18.51;15.64
69689;BME280;56932;38.402;-96.176;2023-02-24T06:54:13;99228.77;;;19.47;15.18
69689;BME280;56932;38.402;-96.176;2023-02-24T06:56:39;99234.09;;;19.78;15.11
69689;BME280;56932;38.402;-96.176;2023-02-24T06:59:05;99248.01;;;20.26;14.66
69689;BME280;56932;38.402;-96.176;2023-02-24T07:01:30;99242.87;;;20.60;14.58
69689;BME280;56932;38.402;-96.176;2023-02-24T07:03:56;99241.37;;;19.88;14.75
69689;BME280;56932;38.402;-96.176;2023-02-24T07:06:21;99245.15;;;20.75;14.44
69689;BME280;56932;38.402;-96.176;2023-02-24T07:08:47;99238.19;;;20.81;14.07
69689;BME280;56932;38.402;-96.176;2023-02-24T07:11:12;99240.49;;;21.06;14.20
69689;BME280;56932;38.402;-96.176;2023-02-24T07:13:38;99233.60;;;20.66;14.21
69689;BME280;56932;38.402;-96.176;2023-02-24T07:16:04;99250.17;;;20.94;14.02
69689;BME280;56932;38.402;-96.176;2023-02-24T07:18:28;99258.37;;;21.11;13.85
69689;BME280;56932;38.402;-96.176;2023-02-24T07:20:54;99255.60;;;20.38;14.09
69689;BME280;56932;38.402;-96.176;2023-02-24T07:23:19;99261.53;;;21.27;13.86
69689;BME280;56932;38.402;-96.176;2023-02-24T07:25:45;99253.40;;;20.70;13.71
69689;BME280;56932;38.402;-96.176;2023-02-24T07:28:11;99271.39;;;21.21;13.66
69689;BME280;56932;38.402;-96.176;2023-02-24T07:30:38;99276.29;;;21.24;13.82
69689;BME280;56932;38.402;-96.176;2023-02-24T07:33:02;99280.35;;;20.45;14.01
69689;BME280;56932;38.402;-96.176;2023-02-24T07:35:27;99261.86;;;20.73;13.84
69689;BME280;56932;38.402;-96.176;2023-02-24T07:37:53;99260.03;;;20.17;13.86
69689;BME280;56932;38.402;-96.176;2023-02-24T07:40:18;99265.88;;;20.94;13.73
69689;BME280;56932;38.402;-96.176;2023-02-24T07:42:44;99268.45;;;20.65;13.61
69689;BME280;56932;38.402;-96.176;2023-02-24T07:45:10;99273.87;;;20.38;13.83
69689;BME280;56932;38.402;-96.176;2023-02-24T07:47:35;99271.08;;;20.60;13.82
69689;BME280;56932;38.402;-96.176;2023-02-24T07:50:01;99270.59;;;20.20;13.77
69689;BME280;56932;38.402;-96.176;2023-02-24T07:52:26;99269.87;;;20.59;13.78
69689;BME280;56932;38.402;-96.176;2023-02-24T07:54:52;99265.70;;;20.19;13.78
69689;BME280;56932;38.402;-96.176;2023-02-24T07:57:17;99257.12;;;20.78;13.58
69689;BME280;56932;38.402;-96.176;2023-02-24T07:59:43;99250.51;;;20.46;13.76
69689;BME280;56932;38.402;-96.176;2023-02-24T08:02:09;99248.74;;;20.18;13.69
69689;BME280;56932;38.402;-96.176;2023-02-24T08:04:34;99250.40;;;20.48;13.70
69689;BME280;56932;38.402;-96.176;2023-02-24T08:07:00;99241.89;;;20.50;13.67
69689;BME280;56932;38.402;-96.176;2023-02-24T08:09:27;99240.22;;;20.34;13.71
69689;BME280;56932;38.402;-96.176;2023-02-24T08:11:52;99238.63;;;19.82;13.62
69689;BME280;56932;38.402;-96.176;2023-02-24T08:14:17;99237.85;;;20.28;13.64
69689;BME280;56932;38.402;-96.176;2023-02-24T08:16:43;99242.57;;;20.28;13.59
69689;BME280;56932;38.402;-96.176;2023-02-24T08:19:09;99245.58;;;19.78;13.68
69689;BME280;56932;38.402;-96.176;2023-02-24T08:21:33;99246.51;;;20.23;13.50
69689;BME280;56932;38.402;-96.176;2023-02-24T08:23:58;99246.14;;;20.15;13.55
69689;BME280;56932;38.402;-96.176;2023-02-24T08:26:24;99241.72;;;20.25;13.67
69689;BME280;56932;38.402;-96.176;2023-02-24T08:28:49;99235.94;;;19.24;13.64
69689;BME280;56932;38.402;-96.176;2023-02-24T08:31:15;99231.93;;;19.84;13.64
69689;BME280;56932;38.402;-96.176;2023-02-24T08:33:41;99235.66;;;20.23;13.57
69689;BME280;56932;38.402;-96.176;2023-02-24T08:36:06;99231.38;;;19.64;13.61
69689;BME280;56932;38.402;-96.176;2023-02-24T08:38:34;99227.11;;;20.11;13.66
69689;BME280;56932;38.402;-96.176;2023-02-24T08:40:57;99232.58;;;19.56;13.66
69689;BME280;56932;38.402;-96.176;2023-02-24T08:43:25;99233.61;;;20.06;13.57
69689;BME280;56932;38.402;-96.176;2023-02-24T08:45:50;99227.85;;;19.24;13.61
69689;BME280;56932;38.402;-96.176;2023-02-24T08:48:16;99233.53;;;19.90;13.63
69689;BME280;56932;38.402;-96.176;2023-02-24T08:50:39;99232.01;;;20.14;13.45
69689;BME280;56932;38.402;-96.176;2023-02-24T08:53:05;99232.15;;;19.57;13.67
69689;BME280;56932;38.402;-96.176;2023-02-24T08:55:31;99229.52;;;18.96;14.14
69689;BME280;56932;38.402;-96.176;2023-02-24T08:57:57;99229.72;;;18.03;14.52
69689;BME280;56932;38.402;-96.176;2023-02-24T09:00:22;99222.34;;;17.68;15.17
69689;BME280;56932;38.402;-96.176;2023-02-24T09:02:48;99224.75;;;16.53;15.55
69689;BME280;56932;38.402;-96.176;2023-02-24T09:05:13;99227.21;;;17.20;15.63
69689;BME280;56932;38.402;-96.176;2023-02-24T09:07:40;99230.30;;;17.00;15.82
69689;BME280;56932;38.402;-96.176;2023-02-24T09:10:06;99239.26;;;17.08;15.73
69689;BME280;56932;38.402;-96.176;2023-02-24T09:12:30;99243.77;;;17.39;15.68
69689;BME280;56932;38.402;-96.176;2023-02-24T09:14:58;99240.96;;;16.93;15.74
69689;BME280;56932;38.402;-96.176;2023-02-24T09:17:23;99241.74;;;17.58;15.72
69689;BME280;56932;38.402;-96.176;2023-02-24T09:19:48;99244.19;;;17.08;15.79
69689;BME280;56932;38.402;-96.176;2023-02-24T09:22:12;99242.89;;;17.86;15.68
69689;BME280;56932;38.402;-96.176;2023-02-24T09:24:37;99237.56;;;18.06;15.61
69689;BME280;56932;38.402;-96.176;2023-02-24T09:27:03;99224.80;;;17.84;15.48
69689;BME280;56932;38.402;-96.176;2023-02-24T09:29:29;99208.18;;;18.77;15.25
69689;BME280;56932;38.402;-96.176;2023-02-24T09:31:54;99188.65;;;17.80;15.29
69689;BME280;56932;38.402;-96.176;2023-02-24T09:34:20;99192.35;;;18.36;15.28
69689;BME280;56932;38.402;-96.176;2023-02-24T09:36:46;99201.97;;;17.89;15.33
69689;BME280;56932;38.402;-96.176;2023-02-24T09:39:11;99211.87;;;18.49;15.42
69689;BME280;56932;38.402;-96.176;2023-02-24T09:41:38;99212.25;;;18.87;15.03
69689;BME280;56932;38.402;-96.176;2023-02-24T09:44:05;99210.53;;;18.74;15.16
69689;BME280;56932;38.402;-96.176;2023-02-24T09:46:30;99208.21;;;18.70;15.22
69689;BME280;56932;38.402;-96.176;2023-02-24T09:48:55;99208.43;;;18.22;15.22
69689;BME280;56932;38.402;-96.176;2023-02-24T09:51:20;99210.06;;;18.73;15.20
69689;BME280;56932;38.402;-96.176;2023-02-24T09:53:45;99209.74;;;18.56;15.20
69689;BME280;56932;38.402;-96.176;2023-02-24T09:56:16;99212.01;;;19.03;15.08
69689;BME280;56932;38.402;-96.176;2023-02-24T09:58:41;99224.34;;;18.82;15.36
69689;BME280;56932;38.402;-96.176;2023-02-24T10:01:09;99233.26;;;18.49;15.29
69689;BME280;56932;38.402;-96.176;2023-02-24T10:03:32;99236.55;;;18.82;15.28
69689;BME280;56932;38.402;-96.176;2023-02-24T10:05:56;99227.14;;;18.29;15.29
69689;BME280;56932;38.402;-96.176;2023-02-24T10:08:22;99227.25;;;19.01;15.14
69689;BME280;56932;38.402;-96.176;2023-02-24T10:10:44;99226.83;;;18.48;15.42
69689;BME280;56932;38.402;-96.176;2023-02-24T10:13:15;99223.15;;;18.69;15.23
69689;BME280;56932;38.402;-96.176;2023-02-24T10:15:35;99231.17;;;18.55;14.97
69689;BME280;56932;38.402;-96.176;2023-02-24T10:18:13;99232.56;;;18.72;14.91
69689;BME280;56932;38.402;-96.176;2023-02-24T10:20:28;99231.27;;;19.18;14.63
69689;BME280;56932;38.402;-96.176;2023-02-24T10:22:55;99234.62;;;18.52;14.70
69689;BME280;56932;38.402;-96.176;2023-02-24T10:25:25;99241.49;;;18.58;14.92
69689;BME280;56932;38.402;-96.176;2023-02-24T10:27:52;99237.52;;;19.53;14.53
69689;BME280;56932;38.402;-96.176;2023-02-24T10:30:14;99228.79;;;19.30;14.34
69689;BME280;56932;38.402;-96.176;2023-02-24T10:32:41;99231.24;;;19.00;14.77
69689;BME280;56932;38.402;-96.176;2023-02-24T10:35:01;99221.68;;;20.24;13.74
69689;BME280;56932;38.402;-96.176;2023-02-24T10:37:25;99215.64;;;20.10;13.93
69689;BME280;56932;38.402;-96.176;2023-02-24T10:39:50;99220.60;;;19.17;13.91
69689;BME280;56932;38.402;-96.176;2023-02-24T10:42:22;99222.10;;;19.59;14.08
69689;BME280;56932;38.402;-96.176;2023-02-24T10:44:43;99226.67;;;20.30;13.71
69689;BME280;56932;38.402;-96.176;2023-02-24T10:47:09;99234.29;;;20.68;13.65
69689;BME280;56932;38.402;-96.176;2023-02-24T10:49:40;99230.37;;;20.90;13.39
69689;BME280;56932;38.402;-96.176;2023-02-24T10:51:58;99242.42;;;20.94;13.18
69689;BME280;56932;38.402;-96.176;2023-02-24T10:54:25;99244.12;;;20.64;13.30
69689;BME280;56932;38.402;-96.176;2023-02-24T10:56:49;99232.14;;;19.58;13.53
69689;BME280;56932;38.402;-96.176;2023-02-24T10:59:17;99223.91;;;20.89;13.26
69689;BME280;56932;38.402;-96.176;2023-02-24T11:01:42;99229.02;;;20.72;12.95
69689;BME280;56932;38.402;-96.176;2023-02-24T11:04:11;99234.21;;;20.75;12.96
69689;BME280;56932;38.402;-96.176;2023-02-24T11:06:32;99235.27;;;20.61;13.12
69689;BME280;56932;38.402;-96.176;2023-02-24T11:08:57;99242.69;;;20.54;12.99
69689;BME280;56932;38.402;-96.176;2023-02-24T11:11:24;99244.38;;;20.79;13.06
69689;BME280;56932;38.402;-96.176;2023-02-24T11:13:49;99244.88;;;20.41;13.01
69689;BME280;56932;38.402;-96.176;2023-02-24T11:16:13;99249.38;;;20.43;12.98
69689;BME280;56932;38.402;-96.176;2023-02-24T11:18:44;99242.43;;;20.66;12.95
69689;BME280;56932;38.402;-96.176;2023-02-24T11:21:06;99244.17;;;20.63;13.04
69689;BME280;56932;38.402;-96.176;2023-02-24T11:23:32;99247.27;;;20.24;12.99
69689;BME280;56932;38.402;-96.176;2023-02-24T11:25:59;99257.95;;;20.84;12.90
69689;BME280;56932;38.402;-96.176;2023-02-24T11:28:39;99260.63;;;20.35;13.01
69689;BME280;56932;38.402;-96.176;2023-02-24T11:30:53;99249.19;;;19.57;13.08
69689;BME280;56932;38.402;-96.176;2023-02-24T11:33:21;99255.30;;;20.11;12.99
69689;BME280;56932;38.402;-96.176;2023-02-24T11:35:41;99251.86;;;20.63;12.98
69689;BME280;56932;38.402;-96.176;2023-02-24T11:38:12;99259.32;;;20.51;12.90
69689;BME280;56932;38.402;-96.176;2023-02-24T11:40:32;99272.86;;;20.01;13.03
69689;BME280;56932;38.402;-96.176;2023-02-24T11:42:57;99275.86;;;20.13;13.05
69689;BME280;56932;38.402;-96.176;2023-02-24T11:45:28;99281.46;;;20.45;13.09
69689;BME280;56932;38.402;-96.176;2023-02-24T11:47:53;99278.04;;;19.44;13.14
69689;BME280;56932;38.402;-96.176;2023-02-24T11:50:27;99277.99;;;20.06;12.99
69689;BME280;56932;38.402;-96.176;2023-02-24T11:52:39;99285.54;;;20.06;12.98
69689;BME280;56932;38.402;-96.176;2023-02-24T11:55:05;99292.52;;;20.00;12.95
69689;BME280;56932;38.402;-96.176;2023-02-24T11:57:34;99287.57;;;19.73;13.09
69689;BME280;56932;38.402;-96.176;2023-02-24T12:00:00;99282.53;;;19.48;13.04
69689;BME280;56932;38.402;-96.176;2023-02-24T12:02:26;99289.76;;;19.98;13.00
69689;BME280;56932;38.402;-96.176;2023-02-24T12:04:52;99282.77;;;19.77;13.03
69689;BME280;56932;38.402;-96.176;2023-02-24T12:07:17;99283.99;;;19.90;13.01
69689;BME280;56932;38.402;-96.176;2023-02-24T12:09:42;99283.77;;;19.61;12.98
69689;BME280;56932;38.402;-96.176;2023-02-24T12:12:06;99294.73;;;19.58;13.02
69689;BME280;56932;38.402;-96.176;2023-02-24T12:14:33;99301.68;;;19.90;13.02
69689;BME280;56932;38.402;-96.176;2023-02-24T12:16:59;99299.56;;;19.53;13.03
69689;BME280;56932;38.402;-96.176;2023-02-24T12:19:24;99306.29;;;19.94;12.95
69689;BME280;56932;38.402;-96.176;2023-02-24T12:21:48;99306.66;;;19.34;13.05
69689;BME280;56932;38.402;-96.176;2023-02-24T12:24:10;99311.03;;;19.84;12.99
69689;BME280;56932;38.402;-96.176;2023-02-24T12:26:40;99323.77;;;18.94;13.43
69689;BME280;56932;38.402;-96.176;2023-02-24T12:29:14;99329.42;;;17.67;14.19
69689;BME280;56932;38.402;-96.176;2023-02-24T12:31:33;99328.99;;;17.27;14.61
69689;BME280;56932;38.402;-96.176;2023-02-24T12:34:00;99335.76;;;16.90;14.73
69689;BME280;56932;38.402;-96.176;2023-02-24T12:36:28;99340.87;;;17.98;14.46